createdAt,value
2017-04-16T00:00:31.246Z,9.68
2017-04-16T00:01:31.234Z,9.62
2017-04-16T00:02:31.196Z,9.20
2017-04-16T00:03:31.184Z,9.63
2017-04-16T00:04:31.115Z,9.70
2017-04-16T00:05:31.107Z,9.48
2017-04-16T00:06:32.010Z,9.25
2017-04-16T00:07:31.963Z,9.62
2017-04-16T00:08:31.975Z,9.77
2017-04-16T00:09:31.894Z,9.95
2017-04-16T00:10:31.910Z,9.83
2017-04-16T00:11:31.839Z,9.73
2017-04-16T00:12:32.096Z,10.05
2017-04-16T00:13:31.912Z,9.37
2017-04-16T00:14:31.826Z,9.52
2017-04-16T00:15:31.768Z,10.17
2017-04-16T00:16:31.702Z,8.72
2017-04-16T00:17:32.081Z,8.83
2017-04-16T00:18:32.027Z,9.48
2017-04-16T00:19:32.014Z,9.40
2017-04-16T00:20:32.663Z,9.67
2017-04-16T00:21:32.594Z,8.48
2017-04-16T00:22:32.519Z,10.30
2017-04-16T00:23:32.515Z,8.55
2017-04-16T00:24:32.433Z,9.37
2017-04-16T00:25:32.339Z,9.55
2017-04-16T00:26:33.037Z,10.43
2017-04-16T00:27:32.963Z,10.17
2017-04-16T00:28:32.900Z,10.47
2017-04-16T00:29:32.818Z,10.18
2017-04-16T00:30:32.758Z,11.25
2017-04-16T00:31:32.685Z,9.85
2017-04-16T00:32:32.667Z,10.38
2017-04-16T00:33:32.819Z,10.45
2017-04-16T00:34:32.820Z,10.37
2017-04-16T00:35:32.767Z,11.12
2017-04-16T00:36:32.695Z,10.62
2017-04-16T00:37:32.658Z,10.57
2017-04-16T00:38:32.587Z,10.93
2017-04-16T00:39:32.547Z,10.20
2017-04-16T00:40:32.482Z,10.67
2017-04-16T00:41:32.406Z,10.22
2017-04-16T00:42:32.451Z,10.52
2017-04-16T00:43:32.389Z,11.10
2017-04-16T00:44:32.362Z,11.85
2017-04-16T00:45:32.270Z,10.83
2017-04-16T00:46:32.211Z,11.48
2017-04-16T00:47:32.119Z,10.67
2017-04-16T00:48:32.075Z,11.43
2017-04-16T00:49:32.019Z,10.72
2017-04-16T00:50:31.992Z,11.63
2017-04-16T00:51:31.895Z,11.08
2017-04-16T00:52:31.802Z,11.68
2017-04-16T00:53:32.079Z,10.88
2017-04-16T00:54:32.031Z,11.37
2017-04-16T00:55:31.979Z,11.82
2017-04-16T00:56:31.875Z,11.12
2017-04-16T00:57:31.794Z,11.70
2017-04-16T00:58:31.724Z,11.67
2017-04-16T00:59:31.663Z,11.02
2017-04-16T01:00:35.815Z,11.08
2017-04-16T01:02:41.855Z,11.63
2017-04-16T01:03:41.790Z,12.07
2017-04-16T01:04:41.767Z,13.17
2017-04-16T01:05:41.711Z,12.88
2017-04-16T01:06:41.679Z,11.92
2017-04-16T01:07:41.625Z,12.87
2017-04-16T01:08:41.787Z,13.28
2017-04-16T01:09:41.727Z,13.73
2017-04-16T01:10:41.748Z,14.77
2017-04-16T01:11:41.793Z,15.37
2017-04-16T01:12:42.454Z,14.45
2017-04-16T01:13:42.476Z,15.12
2017-04-16T01:14:42.476Z,15.27
2017-04-16T01:15:42.476Z,15.23
2017-04-16T01:16:42.467Z,14.02
2017-04-16T01:17:42.432Z,15.63
2017-04-16T01:18:43.122Z,14.00
2017-04-16T01:19:43.073Z,13.73
2017-04-16T01:20:43.099Z,11.83
2017-04-16T01:21:43.071Z,14.67
2017-04-16T01:22:43.811Z,13.98
2017-04-16T01:23:43.761Z,14.27
2017-04-16T01:24:43.721Z,13.18
2017-04-16T01:25:43.735Z,13.38
2017-04-16T01:26:43.682Z,12.58
2017-04-16T01:27:43.636Z,12.32
2017-04-16T01:28:43.587Z,12.40
2017-04-16T01:29:43.623Z,12.13
2017-04-16T01:30:43.614Z,11.27
2017-04-16T01:31:43.588Z,11.23
2017-04-16T01:32:43.636Z,11.73
2017-04-16T01:33:43.578Z,10.45
2017-04-16T01:34:43.535Z,11.68
2017-04-16T01:35:43.531Z,10.83
2017-04-16T01:36:43.562Z,10.60
2017-04-16T01:37:43.662Z,11.58
2017-04-16T01:38:43.889Z,11.50
2017-04-16T01:39:43.758Z,11.48
2017-04-16T01:40:43.726Z,11.70
2017-04-16T01:41:43.754Z,12.77
2017-04-16T01:42:43.800Z,10.78
2017-04-16T01:43:43.764Z,11.08
2017-04-16T01:44:43.711Z,11.08
2017-04-16T01:45:43.791Z,10.95
2017-04-16T01:46:43.727Z,10.48
2017-04-16T01:47:43.748Z,11.18
2017-04-16T01:48:43.707Z,11.88
2017-04-16T01:49:43.707Z,11.10
2017-04-16T01:50:43.782Z,10.62
2017-04-16T01:51:44.486Z,11.25
2017-04-16T01:52:44.628Z,13.15
2017-04-16T01:53:45.327Z,9.35
2017-04-16T01:54:46.022Z,13.03
2017-04-16T01:55:46.010Z,11.95
2017-04-16T01:56:45.964Z,11.37
2017-04-16T01:57:46.674Z,12.00
2017-04-16T01:58:46.629Z,12.72
2017-04-16T01:59:46.564Z,13.72
2017-04-16T02:00:46.591Z,14.03
2017-04-16T02:01:46.607Z,14.28
2017-04-16T02:02:46.581Z,11.22
2017-04-16T02:03:46.551Z,11.90
2017-04-16T02:04:46.506Z,13.07
2017-04-16T02:05:46.504Z,11.42
2017-04-16T02:06:46.562Z,11.22
2017-04-16T02:07:46.534Z,12.17
2017-04-16T02:08:46.516Z,11.27
2017-04-16T02:09:46.487Z,12.03
2017-04-16T02:10:46.475Z,10.80
2017-04-16T02:11:47.243Z,11.45
2017-04-16T02:12:47.261Z,11.83
2017-04-16T02:13:47.301Z,12.95
2017-04-16T02:14:47.274Z,11.30
2017-04-16T02:15:47.340Z,10.58
2017-04-16T02:16:48.106Z,10.58
2017-04-16T02:17:48.068Z,11.03
2017-04-16T02:18:48.031Z,10.75
2017-04-16T02:19:48.304Z,9.83
2017-04-16T02:20:54.883Z,10.35
2017-04-16T02:21:54.884Z,10.57
2017-04-16T02:22:54.846Z,9.85
2017-04-16T02:23:55.922Z,10.07
2017-04-16T02:24:55.899Z,10.40
2017-04-16T02:25:55.828Z,9.75
2017-04-16T02:26:55.798Z,9.80
2017-04-16T02:27:56.510Z,9.80
2017-04-16T02:28:56.459Z,9.58
2017-04-16T02:29:56.414Z,9.73
2017-04-16T02:30:56.614Z,10.00
2017-04-16T02:31:56.745Z,9.02
2017-04-16T02:32:56.693Z,9.22
2017-04-16T02:33:56.625Z,9.90
2017-04-16T02:34:56.564Z,9.93
2017-04-16T02:35:57.267Z,10.42
2017-04-16T02:36:57.239Z,10.00
2017-04-16T02:37:57.227Z,10.52
2017-04-16T02:38:57.494Z,10.32
2017-04-16T02:39:57.591Z,10.75
2017-04-16T02:40:57.566Z,10.10
2017-04-16T02:41:57.602Z,10.82
2017-04-16T02:42:57.615Z,11.42
2017-04-16T02:43:57.612Z,11.23
2017-04-16T02:44:57.558Z,10.90
2017-04-16T02:45:57.503Z,10.90
2017-04-16T02:46:57.500Z,10.97
2017-04-16T02:47:57.451Z,10.73
2017-04-16T02:48:57.419Z,11.08
2017-04-16T02:49:57.507Z,10.02
2017-04-16T02:50:57.472Z,11.08
2017-04-16T02:51:57.475Z,10.17
2017-04-16T02:52:57.743Z,11.83
2017-04-16T02:53:57.566Z,11.93
2017-04-16T02:54:57.546Z,10.50
2017-04-16T02:55:57.490Z,10.53
2017-04-16T02:56:57.438Z,11.27
2017-04-16T02:57:57.439Z,10.40
2017-04-16T02:58:57.383Z,9.22
2017-04-16T02:59:57.331Z,8.83
2017-04-16T03:00:57.290Z,9.70
2017-04-16T03:01:57.235Z,9.22
2017-04-16T03:02:57.196Z,8.93
2017-04-16T03:03:57.176Z,10.05
2017-04-16T03:04:57.152Z,8.28
2017-04-16T03:05:57.158Z,9.95
2017-04-16T03:06:57.120Z,9.58
2017-04-16T03:07:57.083Z,9.45
2017-04-16T03:08:57.034Z,9.20
2017-04-16T03:09:57.069Z,8.55
2017-04-16T03:10:56.998Z,8.78
2017-04-16T03:11:56.923Z,7.32
2017-04-16T03:12:57.595Z,8.70
2017-04-16T03:13:57.507Z,8.20
2017-04-16T03:14:57.427Z,7.90
2017-04-16T03:15:57.326Z,8.07
2017-04-16T03:16:57.254Z,8.03
2017-04-16T03:17:57.958Z,8.03
2017-04-16T03:18:57.882Z,7.70
2017-04-16T03:19:57.851Z,7.70
2017-04-16T03:20:57.770Z,7.53
2017-04-16T03:21:57.679Z,7.25
2017-04-16T03:22:57.648Z,7.50
2017-04-16T03:23:57.630Z,8.08
2017-04-16T03:24:58.359Z,8.13
2017-04-16T03:25:58.278Z,8.02
2017-04-16T03:26:58.211Z,8.47
2017-04-16T03:27:58.146Z,8.60
2017-04-16T03:28:58.832Z,9.42
2017-04-16T03:29:58.739Z,9.20
2017-04-16T03:30:58.679Z,10.00
2017-04-16T03:31:58.627Z,10.75
2017-04-16T03:32:58.594Z,10.27
2017-04-16T03:33:59.311Z,9.38
2017-04-16T03:34:59.974Z,10.17
2017-04-16T03:35:59.899Z,11.52
2017-04-16T03:36:59.805Z,11.28
2017-04-16T03:37:59.751Z,11.43
2017-04-16T03:39:00.487Z,11.33
2017-04-16T03:40:01.127Z,11.47
2017-04-16T03:41:01.055Z,11.83
2017-04-16T03:42:00.947Z,12.37
2017-04-16T03:43:00.930Z,13.00
2017-04-16T03:44:00.842Z,12.55
2017-04-16T03:45:00.778Z,13.70
2017-04-16T03:46:00.679Z,14.15
2017-04-16T03:47:00.573Z,13.58
2017-04-16T03:48:00.541Z,12.53
2017-04-16T03:49:01.179Z,13.48
2017-04-16T03:50:01.086Z,15.17
2017-04-16T03:51:00.970Z,13.30
2017-04-16T03:52:00.866Z,15.00
2017-04-16T03:53:01.532Z,13.50
2017-04-16T03:54:01.487Z,14.88
2017-04-16T03:55:01.394Z,14.58
2017-04-16T03:56:02.038Z,15.37
2017-04-16T03:57:01.943Z,14.03
2017-04-16T03:58:01.838Z,15.93
2017-04-16T03:59:01.770Z,14.90
2017-04-16T04:00:01.669Z,15.75
2017-04-16T04:01:01.656Z,16.28
2017-04-16T04:02:01.546Z,15.40
2017-04-16T04:03:02.182Z,16.37
2017-04-16T04:04:02.142Z,16.18
2017-04-16T04:05:02.038Z,15.40
2017-04-16T04:06:01.942Z,15.12
2017-04-16T04:07:01.870Z,16.62
2017-04-16T04:08:01.825Z,17.43
2017-04-16T04:09:01.774Z,15.75
2017-04-16T04:10:01.694Z,16.03
2017-04-16T04:11:01.595Z,15.95
2017-04-16T04:12:01.659Z,16.67
2017-04-16T04:13:01.580Z,16.52
2017-04-16T04:14:01.501Z,15.68
2017-04-16T04:15:01.463Z,15.10
2017-04-16T04:16:01.371Z,16.92
2017-04-16T04:17:01.308Z,17.23
2017-04-16T04:18:01.252Z,16.02
2017-04-16T04:19:01.137Z,15.78
2017-04-16T04:20:01.062Z,16.50
2017-04-16T04:21:01.735Z,16.23
2017-04-16T04:22:01.610Z,17.20
2017-04-16T04:23:01.523Z,16.40
2017-04-16T04:24:01.446Z,15.17
2017-04-16T04:25:01.422Z,15.42
2017-04-16T04:26:01.345Z,16.95
2017-04-16T04:27:01.235Z,17.05
2017-04-16T04:28:01.211Z,14.72
2017-04-16T04:29:01.849Z,16.73
2017-04-16T04:30:01.796Z,16.60
2017-04-16T04:31:01.711Z,17.63
2017-04-16T04:32:01.681Z,16.38
2017-04-16T04:33:01.571Z,17.40
2017-04-16T04:34:01.490Z,15.77
2017-04-16T04:35:01.459Z,16.37
2017-04-16T04:36:01.401Z,15.30
2017-04-16T04:37:01.319Z,16.83
2017-04-16T04:38:01.195Z,16.20
2017-04-16T04:39:01.098Z,15.35
2017-04-16T04:40:01.568Z,17.03
2017-04-16T04:41:01.535Z,17.38
2017-04-16T04:42:01.466Z,16.18
2017-04-16T04:43:01.341Z,16.33
2017-04-16T04:44:01.291Z,16.80
2017-04-16T04:45:01.178Z,16.40
2017-04-16T04:46:01.855Z,17.55
2017-04-16T04:47:02.491Z,16.10
2017-04-16T04:48:02.400Z,17.18
2017-04-16T04:49:02.324Z,15.00
2017-04-16T04:50:02.263Z,15.80
2017-04-16T04:51:02.202Z,16.17
2017-04-16T04:52:02.142Z,14.52
2017-04-16T04:53:02.080Z,16.55
2017-04-16T04:54:01.954Z,15.97
2017-04-16T04:55:01.879Z,16.08
2017-04-16T04:56:01.791Z,15.78
2017-04-16T04:57:01.723Z,16.22
2017-04-16T04:58:01.671Z,15.98
2017-04-16T04:59:01.618Z,16.08
2017-04-16T05:00:02.343Z,17.13
2017-04-16T05:01:02.267Z,16.42
2017-04-16T05:02:02.174Z,15.75
2017-04-16T05:03:02.076Z,15.47
2017-04-16T05:04:01.959Z,16.22
2017-04-16T05:05:02.629Z,16.38
2017-04-16T05:06:02.543Z,16.60
2017-04-16T05:07:02.467Z,17.30
2017-04-16T05:08:02.379Z,15.63
2017-04-16T05:09:02.294Z,15.70
2017-04-16T05:10:02.225Z,16.42
2017-04-16T05:11:02.145Z,15.20
2017-04-16T05:12:02.069Z,16.10
2017-04-16T05:13:01.986Z,15.10
2017-04-16T05:14:01.943Z,16.25
2017-04-16T05:15:02.644Z,14.60
2017-04-16T05:16:02.561Z,15.15
2017-04-16T05:17:03.191Z,17.10
2017-04-16T05:18:03.091Z,15.72
2017-04-16T05:19:03.099Z,14.33
2017-04-16T05:20:03.778Z,15.75
2017-04-16T05:21:03.679Z,15.17
2017-04-16T05:22:03.630Z,15.28
2017-04-16T05:23:03.529Z,14.58
2017-04-16T05:24:04.156Z,14.67
2017-04-16T05:25:04.114Z,13.00
2017-04-16T05:26:04.041Z,14.37
2017-04-16T05:27:03.919Z,15.18
2017-04-16T05:28:03.859Z,15.28
2017-04-16T05:29:04.511Z,15.12
2017-04-16T05:30:04.455Z,15.02
2017-04-16T05:31:04.407Z,15.40
2017-04-16T05:32:05.056Z,14.92
2017-04-16T05:33:04.973Z,15.10
2017-04-16T05:34:04.891Z,14.83
2017-04-16T05:35:04.822Z,14.70
2017-04-16T05:36:04.758Z,14.97
2017-04-16T05:37:04.682Z,15.43
2017-04-16T05:38:04.576Z,13.20
2017-04-16T05:39:04.932Z,14.82
2017-04-16T05:40:04.879Z,14.45
2017-04-16T05:41:04.799Z,14.65
2017-04-16T05:42:04.698Z,14.92
2017-04-16T05:43:04.616Z,14.48
2017-04-16T05:44:04.575Z,15.92
2017-04-16T05:45:04.491Z,15.43
2017-04-16T05:46:05.138Z,14.50
2017-04-16T05:47:05.038Z,16.73
2017-04-16T05:48:04.984Z,14.63
2017-04-16T05:49:04.900Z,16.25
2017-04-16T05:50:04.795Z,16.88
2017-04-16T05:51:04.752Z,15.60
2017-04-16T05:52:04.676Z,15.70
2017-04-16T05:53:04.580Z,13.82
2017-04-16T05:54:04.496Z,14.83
2017-04-16T05:55:04.408Z,15.25
2017-04-16T05:56:04.323Z,15.83
2017-04-16T05:57:04.235Z,14.23
2017-04-16T05:58:04.165Z,15.20
2017-04-16T05:59:04.797Z,14.52
2017-04-16T06:00:04.909Z,15.57
2017-04-16T06:01:04.854Z,16.32
2017-04-16T06:02:04.767Z,16.22
2017-04-16T06:03:04.663Z,15.35
2017-04-16T06:04:04.576Z,15.92
2017-04-16T06:05:04.473Z,15.40
2017-04-16T06:06:04.438Z,14.73
2017-04-16T06:07:04.359Z,15.43
2017-04-16T06:08:04.259Z,14.83
2017-04-16T06:09:04.350Z,15.98
2017-04-16T06:10:05.015Z,16.43
2017-04-16T06:11:04.923Z,15.52
2017-04-16T06:12:04.871Z,14.55
2017-04-16T06:13:05.524Z,15.25
2017-04-16T06:14:05.477Z,14.95
2017-04-16T06:15:05.382Z,14.72
2017-04-16T06:16:05.315Z,16.32
2017-04-16T06:17:05.208Z,14.90
2017-04-16T06:18:05.950Z,14.97
2017-04-16T06:19:06.598Z,14.60
2017-04-16T06:20:06.519Z,15.78
2017-04-16T06:21:06.426Z,14.50
2017-04-16T06:22:06.335Z,15.55
2017-04-16T06:23:06.243Z,16.58
2017-04-16T06:24:06.147Z,16.03
2017-04-16T06:25:06.039Z,16.32
2017-04-16T06:26:05.931Z,15.60
2017-04-16T06:27:05.880Z,15.27
2017-04-16T06:28:05.863Z,14.83
2017-04-16T06:29:05.767Z,14.22
2017-04-16T06:30:05.695Z,15.42
2017-04-16T06:31:05.886Z,16.37
2017-04-16T06:32:05.678Z,15.37
2017-04-16T06:33:05.604Z,16.28
2017-04-16T06:34:05.691Z,14.80
2017-04-16T06:35:05.588Z,15.90
2017-04-16T06:36:05.488Z,14.90
2017-04-16T06:37:05.390Z,14.95
2017-04-16T06:38:05.307Z,12.83
2017-04-16T06:39:05.595Z,14.32
2017-04-16T06:40:05.508Z,14.60
2017-04-16T06:41:05.447Z,14.83
2017-04-16T06:42:05.351Z,14.38
2017-04-16T06:43:05.326Z,15.42
2017-04-16T06:44:05.305Z,15.00
2017-04-16T06:45:05.942Z,15.45
2017-04-16T06:46:05.883Z,13.90
2017-04-16T06:47:05.813Z,14.25
2017-04-16T06:48:06.502Z,14.80
2017-04-16T06:49:06.521Z,15.73
2017-04-16T06:50:06.439Z,14.48
2017-04-16T06:51:06.476Z,14.78
2017-04-16T06:52:07.109Z,15.27
2017-04-16T06:53:07.071Z,14.08
2017-04-16T06:54:07.487Z,14.67
2017-04-16T06:55:07.842Z,14.03
2017-04-16T06:56:07.743Z,12.98
2017-04-16T06:57:07.704Z,14.57
2017-04-16T06:58:07.619Z,14.95
2017-04-16T06:59:07.545Z,13.60
2017-04-16T07:00:08.691Z,14.43
2017-04-16T07:01:09.459Z,14.62
2017-04-16T07:02:09.366Z,14.65
2017-04-16T07:03:09.325Z,12.37
2017-04-16T07:04:09.291Z,13.35
2017-04-16T07:05:09.518Z,15.40
2017-04-16T07:06:09.268Z,14.65
2017-04-16T07:07:09.171Z,13.87
2017-04-16T07:08:09.100Z,13.95
2017-04-16T07:09:09.003Z,13.37
2017-04-16T07:10:08.895Z,14.45
2017-04-16T07:11:08.811Z,14.97
2017-04-16T07:12:08.717Z,15.67
2017-04-16T07:13:08.619Z,13.00
2017-04-16T07:14:08.547Z,12.93
2017-04-16T07:15:08.443Z,15.05
2017-04-16T07:16:08.486Z,13.52
2017-04-16T07:17:08.399Z,13.60
2017-04-16T07:18:08.326Z,12.50
2017-04-16T07:19:08.290Z,13.48
2017-04-16T07:20:08.962Z,14.67
2017-04-16T07:21:09.394Z,14.95
2017-04-16T07:22:09.333Z,12.80
2017-04-16T07:23:09.975Z,13.45
2017-04-16T07:24:09.934Z,13.62
2017-04-16T07:25:09.851Z,14.75
2017-04-16T07:26:09.765Z,13.37
2017-04-16T07:27:10.480Z,12.42
2017-04-16T07:28:10.408Z,13.13
2017-04-16T07:29:10.363Z,13.00
2017-04-16T07:30:10.304Z,12.88
2017-04-16T07:31:10.991Z,13.58
2017-04-16T07:32:10.908Z,12.15
2017-04-16T07:33:10.856Z,12.35
2017-04-16T07:34:10.839Z,12.70
2017-04-16T07:35:10.757Z,13.05
2017-04-16T07:36:10.686Z,12.60
2017-04-16T07:37:10.589Z,11.75
2017-04-16T07:38:10.501Z,12.48
2017-04-16T07:39:10.443Z,12.92
2017-04-16T07:40:10.411Z,12.43
2017-04-16T07:41:10.342Z,12.07
2017-04-16T07:42:10.278Z,12.80
2017-04-16T07:43:10.937Z,12.22
2017-04-16T07:44:10.874Z,12.05
2017-04-16T07:45:10.790Z,11.48
2017-04-16T07:46:10.740Z,11.77
2017-04-16T07:47:10.663Z,11.57
2017-04-16T07:48:10.572Z,11.75
2017-04-16T07:49:10.522Z,11.43
2017-04-16T07:50:11.212Z,11.08
2017-04-16T07:51:11.124Z,11.87
2017-04-16T07:52:11.062Z,12.12
2017-04-16T07:53:11.735Z,11.52
2017-04-16T07:54:11.672Z,12.88
2017-04-16T07:55:11.640Z,11.65
2017-04-16T07:56:11.607Z,12.62
2017-04-16T07:57:12.271Z,11.65
2017-04-16T07:58:12.825Z,11.72
2017-04-16T07:59:12.733Z,11.12
2017-04-16T08:00:12.692Z,9.97
2017-04-16T08:01:12.623Z,11.15
2017-04-16T08:02:12.610Z,10.25
2017-04-16T08:03:12.551Z,10.93
2017-04-16T08:04:12.463Z,11.03
2017-04-16T08:05:12.404Z,12.05
2017-04-16T08:06:12.331Z,10.83
2017-04-16T08:07:12.289Z,11.22
2017-04-16T08:08:12.935Z,9.70
2017-04-16T08:09:12.867Z,11.17
2017-04-16T08:10:12.818Z,11.32
2017-04-16T08:11:13.483Z,10.13
2017-04-16T08:12:13.427Z,10.68
2017-04-16T08:13:13.415Z,11.25
2017-04-16T08:14:13.336Z,9.25
2017-04-16T08:15:13.302Z,9.98
2017-04-16T08:16:13.175Z,10.55
2017-04-16T08:17:13.116Z,10.62
2017-04-16T08:18:13.023Z,11.33
2017-04-16T08:19:12.947Z,10.38
2017-04-16T08:20:12.908Z,10.45
2017-04-16T08:21:12.860Z,11.53
2017-04-16T08:22:12.764Z,10.03
2017-04-16T08:23:12.679Z,10.73
2017-04-16T08:24:12.598Z,10.52
2017-04-16T08:25:12.535Z,12.52
2017-04-16T08:26:12.452Z,14.18
2017-04-16T08:27:12.403Z,17.05
2017-04-16T08:28:12.323Z,15.48
2017-04-16T08:29:12.964Z,15.67
2017-04-16T08:30:12.911Z,16.15
2017-04-16T08:31:12.899Z,14.82
2017-04-16T08:32:12.848Z,13.57
2017-04-16T08:33:13.656Z,13.50
2017-04-16T08:34:13.681Z,14.60
2017-04-16T08:35:13.592Z,15.13
2017-04-16T08:36:14.244Z,13.03
2017-04-16T08:37:14.206Z,13.95
2017-04-16T08:38:14.111Z,12.47
2017-04-16T08:39:14.036Z,16.80
2017-04-16T08:40:13.939Z,15.60
2017-04-16T08:41:13.889Z,13.48
2017-04-16T08:42:13.794Z,15.12
2017-04-16T08:43:14.683Z,14.83
2017-04-16T08:44:14.579Z,15.07
2017-04-16T08:45:15.251Z,14.80
2017-04-16T08:46:15.233Z,14.57
2017-04-16T08:47:15.158Z,14.40
2017-04-16T08:48:15.070Z,15.58
2017-04-16T08:49:15.284Z,15.48
2017-04-16T08:50:15.183Z,16.50
2017-04-16T08:51:15.136Z,15.43
2017-04-16T08:52:15.070Z,14.35
2017-04-16T08:53:15.026Z,14.73
2017-04-16T08:54:14.951Z,15.02
2017-04-16T08:55:14.879Z,14.93
2017-04-16T08:56:14.785Z,12.90
2017-04-16T08:57:14.756Z,13.25
2017-04-16T08:58:14.881Z,12.58
2017-04-16T08:59:14.954Z,13.13
2017-04-16T09:00:14.936Z,12.18
2017-04-16T09:01:14.823Z,12.97
2017-04-16T09:02:14.749Z,13.47
2017-04-16T09:03:14.710Z,13.73
2017-04-16T09:04:14.577Z,15.17
2017-04-16T09:05:15.111Z,15.57
2017-04-16T09:06:15.020Z,15.17
2017-04-16T09:07:14.960Z,13.75
2017-04-16T09:08:14.968Z,14.55
2017-04-16T09:09:14.870Z,13.87
2017-04-16T09:10:15.491Z,15.62
2017-04-16T09:11:15.440Z,14.55
2017-04-16T09:12:15.606Z,13.17
2017-04-16T09:13:15.517Z,12.17
2017-04-16T09:14:15.415Z,11.80
2017-04-16T09:15:15.315Z,13.62
2017-04-16T09:16:15.327Z,13.77
2017-04-16T09:17:15.278Z,12.47
2017-04-16T09:18:15.210Z,11.98
2017-04-16T09:19:15.156Z,13.03
2017-04-16T09:20:15.076Z,10.28
2017-04-16T09:21:15.007Z,9.18
2017-04-16T09:22:15.014Z,11.50
2017-04-16T09:23:14.959Z,12.07
2017-04-16T09:24:14.877Z,10.83
2017-04-16T09:25:14.896Z,12.18
2017-04-16T09:26:14.788Z,10.15
2017-04-16T09:27:14.731Z,10.53
2017-04-16T09:28:14.699Z,11.48
2017-04-16T09:29:14.605Z,10.08
2017-04-16T09:30:14.548Z,11.97
2017-04-16T09:31:14.480Z,10.73
2017-04-16T09:32:14.430Z,12.12
2017-04-16T09:33:14.436Z,11.97
2017-04-16T09:34:14.425Z,11.63
2017-04-16T09:35:15.091Z,12.90
2017-04-16T09:36:15.015Z,13.08
2017-04-16T09:37:14.975Z,13.18
2017-04-16T09:38:14.960Z,12.40
2017-04-16T09:39:14.887Z,12.48
2017-04-16T09:40:14.836Z,12.82
2017-04-16T09:41:14.977Z,13.07
2017-04-16T09:42:15.790Z,13.22
2017-04-16T09:43:15.870Z,12.63
2017-04-16T09:44:15.842Z,12.92
2017-04-16T09:45:15.927Z,13.70
2017-04-16T09:46:16.719Z,14.85
2017-04-16T09:47:16.854Z,13.30
2017-04-16T09:48:17.652Z,12.57
2017-04-16T09:49:17.716Z,13.98
2017-04-16T09:50:17.643Z,15.07
2017-04-16T09:51:17.590Z,12.97
2017-04-16T09:52:18.271Z,13.00
2017-04-16T09:53:18.211Z,13.82
2017-04-16T09:54:18.171Z,12.05
2017-04-16T09:55:18.355Z,12.27
2017-04-16T09:56:18.332Z,12.42
2017-04-16T09:57:18.227Z,12.52
2017-04-16T09:58:18.207Z,12.15
2017-04-16T09:59:18.158Z,10.70
2017-04-16T10:00:18.088Z,12.18
2017-04-16T10:01:18.046Z,11.27
2017-04-16T10:02:17.950Z,10.97
2017-04-16T10:03:17.894Z,11.75
2017-04-16T10:04:17.804Z,10.67
2017-04-16T10:05:17.835Z,11.28
2017-04-16T10:06:17.811Z,10.25
2017-04-16T10:07:17.780Z,11.23
2017-04-16T10:08:17.690Z,10.35
2017-04-16T10:09:17.647Z,10.80
2017-04-16T10:10:17.568Z,11.70
2017-04-16T10:11:17.508Z,11.28
2017-04-16T10:12:18.183Z,11.85
2017-04-16T10:13:18.446Z,12.22
2017-04-16T10:14:19.127Z,11.07
2017-04-16T10:15:19.032Z,11.55
2017-04-16T10:16:18.935Z,11.97
2017-04-16T10:17:18.867Z,11.80
2017-04-16T10:18:18.813Z,13.35
2017-04-16T10:19:18.730Z,11.10
2017-04-16T10:20:18.642Z,11.15
2017-04-16T10:21:18.583Z,11.00
2017-04-16T10:22:18.508Z,10.97
2017-04-16T10:23:18.415Z,11.25
2017-04-16T10:24:18.375Z,9.40
2017-04-16T10:25:18.275Z,11.35
2017-04-16T10:26:18.204Z,11.20
2017-04-16T10:27:18.131Z,12.00
2017-04-16T10:28:18.034Z,11.15
2017-04-16T10:29:17.994Z,9.92
2017-04-16T10:30:17.907Z,9.90
2017-04-16T10:31:17.887Z,10.58
2017-04-16T10:32:17.799Z,8.57
2017-04-16T10:33:17.747Z,9.68
2017-04-16T10:34:18.075Z,9.80
2017-04-16T10:35:18.728Z,8.65
2017-04-16T10:36:18.629Z,9.22
2017-04-16T10:37:18.544Z,8.77
2017-04-16T10:38:18.455Z,8.43
2017-04-16T10:39:18.428Z,9.25
2017-04-16T10:40:19.167Z,10.58
2017-04-16T10:41:19.448Z,9.78
2017-04-16T10:42:19.239Z,9.67
2017-04-16T10:43:19.143Z,10.10
2017-04-16T10:44:19.091Z,9.60
2017-04-16T10:45:18.983Z,10.20
2017-04-16T10:46:18.911Z,10.13
2017-04-16T10:47:18.827Z,10.00
2017-04-16T10:48:18.756Z,9.58
2017-04-16T10:49:18.687Z,9.73
2017-04-16T10:50:18.632Z,9.67
2017-04-16T10:51:18.530Z,8.10
2017-04-16T10:52:18.466Z,8.72
2017-04-16T10:53:18.363Z,8.20
2017-04-16T10:54:18.296Z,9.28
2017-04-16T10:55:18.233Z,9.45
2017-04-16T10:56:18.188Z,10.63
2017-04-16T10:57:18.079Z,10.60
2017-04-16T10:58:17.981Z,9.27
2017-04-16T10:59:17.915Z,9.30
2017-04-16T11:00:17.874Z,9.33
2017-04-16T11:01:17.783Z,8.28
2017-04-16T11:02:17.671Z,6.32
2017-04-16T11:03:17.567Z,6.40
2017-04-16T11:04:18.211Z,5.50
2017-04-16T11:05:18.205Z,4.27
2017-04-16T11:06:18.887Z,3.67
2017-04-16T11:07:18.801Z,6.03
2017-04-16T11:08:18.728Z,6.28
2017-04-16T11:09:18.607Z,6.03
2017-04-16T11:10:18.533Z,5.92
2017-04-16T11:11:19.200Z,6.67
2017-04-16T11:12:19.132Z,7.30
2017-04-16T11:13:19.033Z,7.07
2017-04-16T11:14:18.935Z,8.37
2017-04-16T11:15:18.886Z,7.73
2017-04-16T11:16:18.783Z,6.00
2017-04-16T11:17:19.427Z,7.73
2017-04-16T11:18:19.339Z,8.90
2017-04-16T11:19:19.254Z,9.98
2017-04-16T11:20:19.219Z,7.48
2017-04-16T11:21:19.888Z,9.65
2017-04-16T11:22:19.803Z,9.03
2017-04-16T11:23:19.732Z,8.45
2017-04-16T11:24:19.623Z,9.10
2017-04-16T11:25:19.571Z,8.12
2017-04-16T11:26:20.218Z,4.70
2017-04-16T11:27:20.151Z,8.57
2017-04-16T11:28:20.028Z,10.10
2017-04-16T11:29:19.932Z,9.28
2017-04-16T11:30:19.860Z,8.08
2017-04-16T11:31:19.759Z,6.68
2017-04-16T11:32:19.642Z,5.17
2017-04-16T11:33:19.624Z,5.47
2017-04-16T11:34:19.522Z,5.35
2017-04-16T11:35:19.467Z,6.05
2017-04-16T11:36:19.407Z,5.73
2017-04-16T11:37:19.292Z,6.23
2017-04-16T11:38:19.168Z,5.68
2017-04-16T11:39:19.047Z,4.83
2017-04-16T11:40:19.680Z,5.33
2017-04-16T11:41:19.687Z,4.48
2017-04-16T11:42:19.627Z,6.88
2017-04-16T11:43:19.540Z,4.78
2017-04-16T11:44:19.457Z,5.13
2017-04-16T11:45:19.494Z,4.72
2017-04-16T11:46:19.495Z,5.38
2017-04-16T11:47:20.159Z,4.13
2017-04-16T11:48:20.038Z,3.70
2017-04-16T11:49:19.908Z,3.73
2017-04-16T11:50:20.579Z,3.83
2017-04-16T11:51:20.536Z,4.13
2017-04-16T11:52:20.412Z,4.17
2017-04-16T11:53:20.374Z,4.20
2017-04-16T11:54:20.288Z,3.98
2017-04-16T11:55:20.200Z,4.50
2017-04-16T11:56:20.163Z,5.63
2017-04-16T11:57:20.247Z,4.52
2017-04-16T11:58:20.129Z,5.25
2017-04-16T11:59:20.054Z,5.27
2017-04-16T12:00:19.958Z,4.08
2017-04-16T12:01:19.914Z,4.58
2017-04-16T12:02:19.872Z,4.03
2017-04-16T12:03:19.774Z,5.43
2017-04-16T12:04:19.664Z,6.70
2017-04-16T12:05:19.652Z,4.42
2017-04-16T12:06:19.582Z,4.02
2017-04-16T12:07:19.540Z,4.50
2017-04-16T12:08:19.467Z,4.57
2017-04-16T12:09:19.352Z,4.45
2017-04-16T12:10:19.247Z,3.83
2017-04-16T12:11:19.312Z,5.35
2017-04-16T12:12:19.247Z,4.42
2017-04-16T12:13:19.156Z,4.95
2017-04-16T12:14:19.074Z,4.52
2017-04-16T12:15:18.991Z,5.23
2017-04-16T12:16:18.885Z,4.45
2017-04-16T12:17:19.580Z,5.20
2017-04-16T12:18:19.497Z,5.95
2017-04-16T12:19:19.426Z,5.80
2017-04-16T12:20:19.486Z,6.22
2017-04-16T12:21:19.371Z,7.00
2017-04-16T12:22:19.321Z,7.08
2017-04-16T12:23:19.992Z,7.05
2017-04-16T12:24:19.877Z,7.30
2017-04-16T12:25:19.767Z,6.58
2017-04-16T12:26:19.672Z,5.58
2017-04-16T12:27:19.629Z,6.05
2017-04-16T12:28:19.546Z,6.43
2017-04-16T12:29:19.428Z,6.87
2017-04-16T12:30:19.304Z,6.03
2017-04-16T12:31:19.199Z,6.52
2017-04-16T12:32:19.151Z,6.00
2017-04-16T12:33:19.101Z,5.95
2017-04-16T12:34:19.004Z,5.67
2017-04-16T12:35:19.654Z,5.50
2017-04-16T12:36:19.559Z,6.05
2017-04-16T12:37:19.536Z,4.60
2017-04-16T12:38:20.162Z,5.78
2017-04-16T12:39:20.064Z,4.95
2017-04-16T12:40:19.943Z,4.20
2017-04-16T12:41:19.848Z,5.10
2017-04-16T12:42:19.850Z,4.60
2017-04-16T12:43:19.743Z,4.55
2017-04-16T12:44:19.632Z,5.25
2017-04-16T12:45:19.602Z,4.80
2017-04-16T12:46:19.784Z,4.92
2017-04-16T12:47:20.528Z,4.62
2017-04-16T12:48:20.403Z,4.30
2017-04-16T12:49:21.049Z,4.68
2017-04-16T12:50:21.056Z,4.43
2017-04-16T12:51:21.779Z,5.28
2017-04-16T12:52:22.438Z,5.25
2017-04-16T12:53:22.459Z,5.58
2017-04-16T12:54:22.390Z,5.40
2017-04-16T12:55:22.387Z,6.20
2017-04-16T12:56:22.534Z,4.38
2017-04-16T12:57:23.221Z,4.38
2017-04-16T12:58:23.110Z,4.62
2017-04-16T12:59:23.011Z,3.73
2017-04-16T13:00:22.908Z,4.22
2017-04-16T13:01:22.827Z,4.62